MUHGMUGM

Guest
Details From MUHG - FRANK PAIS INTL
To MUGM - Guantanamo Bay Ns
Flight Number -
Tags generated
Created
Modified
Stats Distance 83 nm / 153 km
Max Altitude 100 ft / 30 m
Waypoints 3
Social Downloads 0
Likes 0
Share VATSIM

Download

Looking for another format? Having issues loading an existing format? Contact us
Advertisement - Login to hide

Notes

Basic altitude profile: - Ascent Rate: 2500ft/min - Ascent Speed: 250kts - Cruise Altitude: 35000ft - Cruise Speed: 420kts - Descent Rate: 1500ft/min - Descent Speed: 250kts Options: - Use NATs: yes - Use PACOTS: yes - Use low airways: yes - Use high airways: yes

Route

MUHG NBW MUGM

ID Type Via Altitude Latitude Longitude Leg Dist Tot Dist Heading (true) Name
O MUHG APT - 0 ft / 0 m 20.78555˚ -76.31511˚ - 0 nm - FRANK PAIS INTL
NBW VOR - 100 ft / 30 m 19.90453˚ -75.19879˚ 82 nm 82 nm 130° / 130° GUANTANAMO BAY NS VOR
O MUGM APT - 0 ft / 0 m 19.90646˚ -75.20706˚ 0 nm 82 nm 284° / 284° Guantanamo Bay Ns

Altitude Profile

Advertisement - Login to hide

MUHG

Details ICAO MUHG (HOG)
Name FRANK PAIS INTL
Region Cuba
Timezone America/Havana (UTC-4.0)
Stats Elevation 361 ft / 110 m (AMSL)
Location 20.785554° -76.315108°
Runways 1
Magnetic Variation 8.288° W

METAR

MUHG 212250Z 08007KT 8000 FEW030 BKN070 24/22 Q1014

Decode

TAF

TAF TAF AMD MUHG 212200Z 2122/2218 09008KT 9000 SCT020 BKN060

Decode

Departure Runways

ID Width Length Bearing (true) Bearing (mag) Surface Threshold Offset Overrun Length
05 148 ft / 45 m 10,642 ft / 3,244 m 46.12° 54.41° Asphalt 328 ft / 100 m 290 ft / 88 m
23 148 ft / 45 m 10,642 ft / 3,244 m 226.12° 234.41° Asphalt 0 ft / 0 m 0 ft / 0 m

MUGM

Details ICAO MUGM
Name Guantanamo Bay Ns
Region Cuba
Timezone Unknown (UTC+0.0)
Stats Elevation 56 ft / 17 m (AMSL)
Location 19.906458° -75.207055°
Runways 1
Magnetic Variation 8.795° W

METAR

MUGM 212256Z 09013KT 9999 FEW035 SCT060 BKN280 28/24 A2994 RMK SLP139 T02830244

Decode

TAF

TAF MUGM 2115/2215 06012KT 9999 VCTS SCT025CB BKN080 BKN250 QNH2997INS BECMG 2115/2117 12014G22KT 9999 VCTS FEW025CB SCT120 BKN280 QNH2991INS TEMPO 2117/2123 12018G25KT 8000 SHRA BKN025CB BKN080 BECMG 2121/2123 09010KT 9999 VCSH FEW025CB BKN080 BKN280 QNH2990INS FM220300 35008KT 9999 VCSH FEW025 SCT060 BKN280 QNH2996INS T31/2118Z T24/2210Z FN20024

Decode

Destination Runways

ID Width Length Bearing (true) Bearing (mag) Surface Threshold Offset Overrun Length
10 200 ft / 61 m 7,988 ft / 2,435 m 91.09° 99.88° Asphalt 100 ft / 30 m 150 ft / 46 m
28 200 ft / 61 m 7,988 ft / 2,435 m 271.10° 279.89° Asphalt 100 ft / 30 m 150 ft / 46 m